sensor_id;sensor_type;location;lat;lon;timestamp;temperature;humidity
27779;DHT22;30234;48.090;11.464;2023-05-07T00:03:18;9.70;99.90
27779;DHT22;30234;48.090;11.464;2023-05-07T00:07:20;9.70;99.90
27779;DHT22;30234;48.090;11.464;2023-05-07T00:11:21;9.90;99.90
27779;DHT22;30234;48.090;11.464;2023-05-07T00:15:22;10.00;99.90
27779;DHT22;30234;48.090;11.464;2023-05-07T00:19:23;9.90;99.90
27779;DHT22;30234;48.090;11.464;2023-05-07T00:23:24;9.70;99.90
27779;DHT22;30234;48.090;11.464;2023-05-07T00:27:25;9.70;99.90
27779;DHT22;30234;48.090;11.464;2023-05-07T00:31:26;9.60;99.90
27779;DHT22;30234;48.090;11.464;2023-05-07T00:35:28;9.50;99.90
27779;DHT22;30234;48.090;11.464;2023-05-07T00:39:30;9.50;99.90
27779;DHT22;30234;48.090;11.464;2023-05-07T00:43:31;9.50;99.90
27779;DHT22;30234;48.090;11.464;2023-05-07T00:47:32;9.70;99.90
27779;DHT22;30234;48.090;11.464;2023-05-07T00:51:33;9.70;99.90
27779;DHT22;30234;48.090;11.464;2023-05-07T00:55:35;9.70;99.90
27779;DHT22;30234;48.090;11.464;2023-05-07T00:59:37;9.70;99.90
27779;DHT22;30234;48.090;11.464;2023-05-07T01:03:39;9.70;99.90
27779;DHT22;30234;48.090;11.464;2023-05-07T01:07:40;9.50;99.90
27779;DHT22;30234;48.090;11.464;2023-05-07T01:11:43;9.50;99.90
27779;DHT22;30234;48.090;11.464;2023-05-07T01:15:44;9.40;99.90
27779;DHT22;30234;48.090;11.464;2023-05-07T01:19:45;9.50;99.90
27779;DHT22;30234;48.090;11.464;2023-05-07T01:23:48;9.60;99.90
27779;DHT22;30234;48.090;11.464;2023-05-07T01:27:49;9.60;99.90
27779;DHT22;30234;48.090;11.464;2023-05-07T01:31:51;9.70;99.90
27779;DHT22;30234;48.090;11.464;2023-05-07T01:35:53;9.50;99.90
27779;DHT22;30234;48.090;11.464;2023-05-07T01:39:55;9.50;99.90
27779;DHT22;30234;48.090;11.464;2023-05-07T01:43:58;9.50;99.90
27779;DHT22;30234;48.090;11.464;2023-05-07T01:48:01;9.50;99.90
27779;DHT22;30234;48.090;11.464;2023-05-07T01:52:03;9.60;99.90
27779;DHT22;30234;48.090;11.464;2023-05-07T01:56:05;9.50;99.90
27779;DHT22;30234;48.090;11.464;2023-05-07T02:00:06;9.40;99.90
27779;DHT22;30234;48.090;11.464;2023-05-07T02:04:09;9.30;99.90
27779;DHT22;30234;48.090;11.464;2023-05-07T02:08:10;9.10;99.90
27779;DHT22;30234;48.090;11.464;2023-05-07T02:12:11;9.40;99.90
27779;DHT22;30234;48.090;11.464;2023-05-07T02:16:12;9.30;99.90
27779;DHT22;30234;48.090;11.464;2023-05-07T02:20:14;9.10;99.90
27779;DHT22;30234;48.090;11.464;2023-05-07T02:24:15;9.10;99.90
27779;DHT22;30234;48.090;11.464;2023-05-07T02:28:16;9.00;99.90
27779;DHT22;30234;48.090;11.464;2023-05-07T02:32:17;9.00;99.90
27779;DHT22;30234;48.090;11.464;2023-05-07T02:36:18;9.00;99.90
27779;DHT22;30234;48.090;11.464;2023-05-07T02:40:19;8.90;99.90
27779;DHT22;30234;48.090;11.464;2023-05-07T02:44:20;9.00;99.90
27779;DHT22;30234;48.090;11.464;2023-05-07T02:48:21;8.90;99.90
27779;DHT22;30234;48.090;11.464;2023-05-07T02:52:22;8.90;99.90
27779;DHT22;30234;48.090;11.464;2023-05-07T02:56:25;8.90;99.90
27779;DHT22;30234;48.090;11.464;2023-05-07T03:00:26;8.80;99.90
27779;DHT22;30234;48.090;11.464;2023-05-07T03:04:27;8.80;99.90
27779;DHT22;30234;48.090;11.464;2023-05-07T03:08:28;8.90;99.90
27779;DHT22;30234;48.090;11.464;2023-05-07T03:12:29;9.10;99.90
27779;DHT22;30234;48.090;11.464;2023-05-07T03:16:30;9.10;99.90
27779;DHT22;30234;48.090;11.464;2023-05-07T03:20:31;9.20;99.90
27779;DHT22;30234;48.090;11.464;2023-05-07T03:24:32;9.00;99.90
27779;DHT22;30234;48.090;11.464;2023-05-07T03:28:33;8.80;99.90
27779;DHT22;30234;48.090;11.464;2023-05-07T03:32:35;8.70;99.90
27779;DHT22;30234;48.090;11.464;2023-05-07T03:36:36;8.60;99.90
27779;DHT22;30234;48.090;11.464;2023-05-07T03:40:37;8.60;99.90
27779;DHT22;30234;48.090;11.464;2023-05-07T03:44:38;8.50;99.90
27779;DHT22;30234;48.090;11.464;2023-05-07T03:48:39;8.60;99.90
27779;DHT22;30234;48.090;11.464;2023-05-07T03:52:40;8.50;99.90
27779;DHT22;30234;48.090;11.464;2023-05-07T03:56:41;8.40;99.90
27779;DHT22;30234;48.090;11.464;2023-05-07T04:00:42;8.30;99.90
27779;DHT22;30234;48.090;11.464;2023-05-07T04:04:43;8.40;99.90
27779;DHT22;30234;48.090;11.464;2023-05-07T04:08:44;8.50;99.90
27779;DHT22;30234;48.090;11.464;2023-05-07T04:12:45;8.50;99.90
27779;DHT22;30234;48.090;11.464;2023-05-07T04:16:45;8.60;99.90
27779;DHT22;30234;48.090;11.464;2023-05-07T04:20:47;8.70;99.90
27779;DHT22;30234;48.090;11.464;2023-05-07T04:24:50;8.90;99.90
27779;DHT22;30234;48.090;11.464;2023-05-07T04:28:50;8.80;99.90
27779;DHT22;30234;48.090;11.464;2023-05-07T04:32:52;8.70;99.90
27779;DHT22;30234;48.090;11.464;2023-05-07T04:36:53;8.90;99.90
27779;DHT22;30234;48.090;11.464;2023-05-07T04:40:54;9.20;99.90
27779;DHT22;30234;48.090;11.464;2023-05-07T04:44:55;9.50;99.90
27779;DHT22;30234;48.090;11.464;2023-05-07T04:48:56;9.70;99.90
27779;DHT22;30234;48.090;11.464;2023-05-07T04:52:57;10.20;99.90
27779;DHT22;30234;48.090;11.464;2023-05-07T04:56:57;10.40;99.90
27779;DHT22;30234;48.090;11.464;2023-05-07T05:00:59;10.60;99.90
27779;DHT22;30234;48.090;11.464;2023-05-07T05:05:01;10.70;99.90
27779;DHT22;30234;48.090;11.464;2023-05-07T05:09:02;10.80;99.90
27779;DHT22;30234;48.090;11.464;2023-05-07T05:13:05;11.20;99.90
27779;DHT22;30234;48.090;11.464;2023-05-07T05:17:06;12.10;99.90
27779;DHT22;30234;48.090;11.464;2023-05-07T05:21:07;13.60;99.90
27779;DHT22;30234;48.090;11.464;2023-05-07T05:25:08;15.40;99.90
27779;DHT22;30234;48.090;11.464;2023-05-07T05:29:09;18.40;99.90
27779;DHT22;30234;48.090;11.464;2023-05-07T05:33:10;20.90;99.90
27779;DHT22;30234;48.090;11.464;2023-05-07T05:37:11;22.60;99.90
27779;DHT22;30234;48.090;11.464;2023-05-07T05:41:12;24.30;99.90
27779;DHT22;30234;48.090;11.464;2023-05-07T05:45:13;25.80;96.60
27779;DHT22;30234;48.090;11.464;2023-05-07T05:49:14;27.30;90.50
27779;DHT22;30234;48.090;11.464;2023-05-07T05:53:15;28.70;79.20
27779;DHT22;30234;48.090;11.464;2023-05-07T05:57:16;29.80;71.90
27779;DHT22;30234;48.090;11.464;2023-05-07T06:01:18;30.30;67.80
27779;DHT22;30234;48.090;11.464;2023-05-07T06:05:19;30.20;65.80
27779;DHT22;30234;48.090;11.464;2023-05-07T06:09:20;27.90;66.10
27779;DHT22;30234;48.090;11.464;2023-05-07T06:13:22;27.70;68.80
27779;DHT22;30234;48.090;11.464;2023-05-07T06:17:24;27.20;71.60
27779;DHT22;30234;48.090;11.464;2023-05-07T06:21:25;27.30;71.30
27779;DHT22;30234;48.090;11.464;2023-05-07T06:25:26;25.20;75.00
27779;DHT22;30234;48.090;11.464;2023-05-07T06:29:27;25.10;76.20
27779;DHT22;30234;48.090;11.464;2023-05-07T06:33:31;27.70;73.20
27779;DHT22;30234;48.090;11.464;2023-05-07T06:37:31;28.20;71.50
27779;DHT22;30234;48.090;11.464;2023-05-07T06:41:32;28.90;68.90
27779;DHT22;30234;48.090;11.464;2023-05-07T06:45:33;29.20;65.70
27779;DHT22;30234;48.090;11.464;2023-05-07T06:49:34;28.50;67.80
27779;DHT22;30234;48.090;11.464;2023-05-07T06:53:35;28.60;68.70
27779;DHT22;30234;48.090;11.464;2023-05-07T06:57:37;29.20;65.50
27779;DHT22;30234;48.090;11.464;2023-05-07T07:01:38;28.00;69.80
27779;DHT22;30234;48.090;11.464;2023-05-07T07:05:42;29.00;67.20
27779;DHT22;30234;48.090;11.464;2023-05-07T07:09:43;28.60;66.40
27779;DHT22;30234;48.090;11.464;2023-05-07T07:13:44;27.10;69.10
27779;DHT22;30234;48.090;11.464;2023-05-07T07:17:45;27.60;67.50
27779;DHT22;30234;48.090;11.464;2023-05-07T07:21:46;26.50;68.20
27779;DHT22;30234;48.090;11.464;2023-05-07T07:25:47;26.70;69.80
27779;DHT22;30234;48.090;11.464;2023-05-07T07:29:48;27.30;68.00
27779;DHT22;30234;48.090;11.464;2023-05-07T07:33:49;27.10;68.90
27779;DHT22;30234;48.090;11.464;2023-05-07T07:37:50;26.60;69.40
27779;DHT22;30234;48.090;11.464;2023-05-07T07:41:51;28.10;68.60
27779;DHT22;30234;48.090;11.464;2023-05-07T07:45:52;29.10;64.30
27779;DHT22;30234;48.090;11.464;2023-05-07T07:49:53;28.50;65.00
27779;DHT22;30234;48.090;11.464;2023-05-07T07:53:54;28.30;65.90
27779;DHT22;30234;48.090;11.464;2023-05-07T07:57:55;29.30;64.50
27779;DHT22;30234;48.090;11.464;2023-05-07T08:01:56;29.80;62.40
27779;DHT22;30234;48.090;11.464;2023-05-07T08:05:57;29.10;63.40
27779;DHT22;30234;48.090;11.464;2023-05-07T08:09:58;29.00;62.20
27779;DHT22;30234;48.090;11.464;2023-05-07T08:13:59;27.60;66.90
27779;DHT22;30234;48.090;11.464;2023-05-07T08:18:01;28.80;64.50
27779;DHT22;30234;48.090;11.464;2023-05-07T08:22:05;29.10;63.70
27779;DHT22;30234;48.090;11.464;2023-05-07T08:26:07;29.10;61.30
27779;DHT22;30234;48.090;11.464;2023-05-07T08:30:09;28.70;63.20
27779;DHT22;30234;48.090;11.464;2023-05-07T08:34:10;29.60;61.50
27779;DHT22;30234;48.090;11.464;2023-05-07T08:38:11;29.80;63.50
27779;DHT22;30234;48.090;11.464;2023-05-07T08:42:12;30.80;59.70
27779;DHT22;30234;48.090;11.464;2023-05-07T08:46:19;29.10;59.50
27779;DHT22;30234;48.090;11.464;2023-05-07T08:50:21;29.80;60.20
27779;DHT22;30234;48.090;11.464;2023-05-07T08:54:22;29.80;58.50
27779;DHT22;30234;48.090;11.464;2023-05-07T08:58:23;29.00;60.60
27779;DHT22;30234;48.090;11.464;2023-05-07T09:02:24;28.20;59.50
27779;DHT22;30234;48.090;11.464;2023-05-07T09:06:25;27.80;63.60
27779;DHT22;30234;48.090;11.464;2023-05-07T09:10:27;27.70;63.10
27779;DHT22;30234;48.090;11.464;2023-05-07T09:14:28;28.60;62.60
27779;DHT22;30234;48.090;11.464;2023-05-07T09:18:29;28.30;61.00
27779;DHT22;30234;48.090;11.464;2023-05-07T09:22:32;28.90;60.90
27779;DHT22;30234;48.090;11.464;2023-05-07T09:26:33;28.60;62.00
27779;DHT22;30234;48.090;11.464;2023-05-07T09:30:35;27.40;61.00
27779;DHT22;30234;48.090;11.464;2023-05-07T09:34:36;27.50;61.90
27779;DHT22;30234;48.090;11.464;2023-05-07T09:38:38;29.00;59.40
27779;DHT22;30234;48.090;11.464;2023-05-07T09:42:39;29.20;58.30
27779;DHT22;30234;48.090;11.464;2023-05-07T09:46:42;29.00;59.00
27779;DHT22;30234;48.090;11.464;2023-05-07T09:50:50;29.40;55.50
27779;DHT22;30234;48.090;11.464;2023-05-07T09:54:53;29.30;56.40
27779;DHT22;30234;48.090;11.464;2023-05-07T09:59:00;29.70;55.60
27779;DHT22;30234;48.090;11.464;2023-05-07T10:03:03;29.30;55.00
27779;DHT22;30234;48.090;11.464;2023-05-07T10:07:05;28.90;56.20
27779;DHT22;30234;48.090;11.464;2023-05-07T10:11:08;29.50;57.00
27779;DHT22;30234;48.090;11.464;2023-05-07T10:15:10;29.00;57.20
27779;DHT22;30234;48.090;11.464;2023-05-07T10:19:12;30.20;56.70
27779;DHT22;30234;48.090;11.464;2023-05-07T10:23:14;28.80;55.60
27779;DHT22;30234;48.090;11.464;2023-05-07T10:27:21;28.50;57.40
27779;DHT22;30234;48.090;11.464;2023-05-07T10:35:59;29.30;56.00
27779;DHT22;30234;48.090;11.464;2023-05-07T10:40:01;29.60;56.50
27779;DHT22;30234;48.090;11.464;2023-05-07T10:44:03;29.20;56.00
27779;DHT22;30234;48.090;11.464;2023-05-07T10:48:15;29.10;56.40
27779;DHT22;30234;48.090;11.464;2023-05-07T10:52:21;29.40;57.00
27779;DHT22;30234;48.090;11.464;2023-05-07T10:56:27;28.60;57.40
27779;DHT22;30234;48.090;11.464;2023-05-07T11:04:30;27.40;58.80
27779;DHT22;30234;48.090;11.464;2023-05-07T11:08:53;26.70;60.10
27779;DHT22;30234;48.090;11.464;2023-05-07T11:12:57;26.20;61.90
27779;DHT22;30234;48.090;11.464;2023-05-07T11:17:03;26.60;61.30
27779;DHT22;30234;48.090;11.464;2023-05-07T11:21:05;28.00;60.90
27779;DHT22;30234;48.090;11.464;2023-05-07T11:25:06;28.70;57.10
27779;DHT22;30234;48.090;11.464;2023-05-07T11:29:12;28.50;56.60
27779;DHT22;30234;48.090;11.464;2023-05-07T11:33:17;27.90;57.90
27779;DHT22;30234;48.090;11.464;2023-05-07T11:37:19;28.20;58.20
27779;DHT22;30234;48.090;11.464;2023-05-07T11:41:20;28.20;55.60
27779;DHT22;30234;48.090;11.464;2023-05-07T11:45:25;28.10;56.80
27779;DHT22;30234;48.090;11.464;2023-05-07T11:49:26;28.30;56.40
27779;DHT22;30234;48.090;11.464;2023-05-07T11:53:35;29.20;56.60
27779;DHT22;30234;48.090;11.464;2023-05-07T11:57:40;29.30;56.10
27779;DHT22;30234;48.090;11.464;2023-05-07T12:01:45;29.60;55.40
27779;DHT22;30234;48.090;11.464;2023-05-07T12:05:48;29.10;56.50
27779;DHT22;30234;48.090;11.464;2023-05-07T12:09:49;28.80;57.70
27779;DHT22;30234;48.090;11.464;2023-05-07T12:13:50;29.10;57.00
27779;DHT22;30234;48.090;11.464;2023-05-07T12:17:52;28.70;57.50
27779;DHT22;30234;48.090;11.464;2023-05-07T12:21:53;28.10;58.90
27779;DHT22;30234;48.090;11.464;2023-05-07T12:25:54;27.80;60.30
27779;DHT22;30234;48.090;11.464;2023-05-07T12:29:54;28.00;59.10
27779;DHT22;30234;48.090;11.464;2023-05-07T12:33:58;27.70;59.80
27779;DHT22;30234;48.090;11.464;2023-05-07T12:37:59;27.70;59.50
27779;DHT22;30234;48.090;11.464;2023-05-07T12:42:04;27.60;60.00
27779;DHT22;30234;48.090;11.464;2023-05-07T12:46:06;26.90;62.40
27779;DHT22;30234;48.090;11.464;2023-05-07T12:50:08;27.50;62.20
27779;DHT22;30234;48.090;11.464;2023-05-07T12:54:09;27.60;60.70
27779;DHT22;30234;48.090;11.464;2023-05-07T12:58:18;27.30;61.50
27779;DHT22;30234;48.090;11.464;2023-05-07T13:02:39;27.00;62.50
27779;DHT22;30234;48.090;11.464;2023-05-07T13:06:41;27.10;61.30
27779;DHT22;30234;48.090;11.464;2023-05-07T13:10:42;27.50;60.00
27779;DHT22;30234;48.090;11.464;2023-05-07T13:14:43;27.20;59.80
27779;DHT22;30234;48.090;11.464;2023-05-07T13:18:44;27.20;61.10
27779;DHT22;30234;48.090;11.464;2023-05-07T13:22:46;27.00;61.60
27779;DHT22;30234;48.090;11.464;2023-05-07T13:26:47;28.20;59.60
27779;DHT22;30234;48.090;11.464;2023-05-07T13:30:48;28.10;58.30
27779;DHT22;30234;48.090;11.464;2023-05-07T13:34:49;28.00;58.60
27779;DHT22;30234;48.090;11.464;2023-05-07T13:38:50;28.20;57.60
27779;DHT22;30234;48.090;11.464;2023-05-07T13:42:52;28.10;58.00
27779;DHT22;30234;48.090;11.464;2023-05-07T13:46:54;28.00;57.00
27779;DHT22;30234;48.090;11.464;2023-05-07T13:50:55;28.40;57.90
27779;DHT22;30234;48.090;11.464;2023-05-07T13:54:56;29.40;56.60
27779;DHT22;30234;48.090;11.464;2023-05-07T13:58:59;29.20;54.90
27779;DHT22;30234;48.090;11.464;2023-05-07T14:03:00;28.70;55.00
27779;DHT22;30234;48.090;11.464;2023-05-07T14:07:01;27.90;55.00
27779;DHT22;30234;48.090;11.464;2023-05-07T14:11:02;27.90;56.50
27779;DHT22;30234;48.090;11.464;2023-05-07T14:15:04;27.20;56.10
27779;DHT22;30234;48.090;11.464;2023-05-07T14:19:05;25.90;58.10
27779;DHT22;30234;48.090;11.464;2023-05-07T14:23:06;25.40;59.60
27779;DHT22;30234;48.090;11.464;2023-05-07T14:27:07;25.00;60.70
27779;DHT22;30234;48.090;11.464;2023-05-07T14:31:08;25.10;61.00
27779;DHT22;30234;48.090;11.464;2023-05-07T14:35:10;25.40;59.90
27779;DHT22;30234;48.090;11.464;2023-05-07T14:39:11;25.30;59.30
27779;DHT22;30234;48.090;11.464;2023-05-07T14:43:12;25.50;59.50
27779;DHT22;30234;48.090;11.464;2023-05-07T14:47:13;25.20;59.00
27779;DHT22;30234;48.090;11.464;2023-05-07T14:51:14;25.00;60.30
27779;DHT22;30234;48.090;11.464;2023-05-07T14:55:15;24.60;63.20
27779;DHT22;30234;48.090;11.464;2023-05-07T14:59:16;24.20;62.50
27779;DHT22;30234;48.090;11.464;2023-05-07T15:03:21;23.60;65.00
27779;DHT22;30234;48.090;11.464;2023-05-07T15:07:25;23.40;65.40
27779;DHT22;30234;48.090;11.464;2023-05-07T15:11:26;23.60;66.00
27779;DHT22;30234;48.090;11.464;2023-05-07T15:15:27;23.40;66.60
27779;DHT22;30234;48.090;11.464;2023-05-07T15:19:28;23.00;68.10
27779;DHT22;30234;48.090;11.464;2023-05-07T15:23:30;23.00;69.30
27779;DHT22;30234;48.090;11.464;2023-05-07T15:27:31;22.90;68.70
27779;DHT22;30234;48.090;11.464;2023-05-07T15:31:32;22.90;70.00
27779;DHT22;30234;48.090;11.464;2023-05-07T15:35:33;22.40;71.20
27779;DHT22;30234;48.090;11.464;2023-05-07T15:39:35;22.10;73.30
27779;DHT22;30234;48.090;11.464;2023-05-07T15:43:44;22.20;73.10
27779;DHT22;30234;48.090;11.464;2023-05-07T15:47:47;22.40;71.90
27779;DHT22;30234;48.090;11.464;2023-05-07T15:51:49;22.00;73.80
27779;DHT22;30234;48.090;11.464;2023-05-07T15:55:51;21.80;74.40
27779;DHT22;30234;48.090;11.464;2023-05-07T15:59:52;21.70;74.30
27779;DHT22;30234;48.090;11.464;2023-05-07T16:03:53;21.60;75.10
27779;DHT22;30234;48.090;11.464;2023-05-07T16:07:54;21.60;76.30
27779;DHT22;30234;48.090;11.464;2023-05-07T16:11:57;21.70;75.50
27779;DHT22;30234;48.090;11.464;2023-05-07T16:15:59;21.70;75.00
27779;DHT22;30234;48.090;11.464;2023-05-07T16:20:01;21.70;74.30
27779;DHT22;30234;48.090;11.464;2023-05-07T16:24:06;21.60;74.10
27779;DHT22;30234;48.090;11.464;2023-05-07T16:28:07;21.60;74.30
27779;DHT22;30234;48.090;11.464;2023-05-07T16:32:08;21.60;73.00
27779;DHT22;30234;48.090;11.464;2023-05-07T16:36:09;21.50;73.40
27779;DHT22;30234;48.090;11.464;2023-05-07T16:40:11;21.60;73.80
27779;DHT22;30234;48.090;11.464;2023-05-07T16:44:12;21.50;71.80
27779;DHT22;30234;48.090;11.464;2023-05-07T16:48:13;21.40;73.00
27779;DHT22;30234;48.090;11.464;2023-05-07T16:52:14;21.20;73.80
27779;DHT22;30234;48.090;11.464;2023-05-07T16:56:15;21.10;73.60
27779;DHT22;30234;48.090;11.464;2023-05-07T17:00:17;20.90;72.60
27779;DHT22;30234;48.090;11.464;2023-05-07T17:04:18;20.60;73.60
27779;DHT22;30234;48.090;11.464;2023-05-07T17:08:19;20.30;74.00
27779;DHT22;30234;48.090;11.464;2023-05-07T17:12:20;20.20;74.70
27779;DHT22;30234;48.090;11.464;2023-05-07T17:16:22;20.00;74.90
27779;DHT22;30234;48.090;11.464;2023-05-07T17:20:23;19.90;75.80
27779;DHT22;30234;48.090;11.464;2023-05-07T17:24:25;19.80;76.60
27779;DHT22;30234;48.090;11.464;2023-05-07T17:28:26;19.80;76.90
27779;DHT22;30234;48.090;11.464;2023-05-07T17:32:27;19.80;76.70
27779;DHT22;30234;48.090;11.464;2023-05-07T17:36:29;19.60;76.70
27779;DHT22;30234;48.090;11.464;2023-05-07T17:40:31;19.60;78.20
27779;DHT22;30234;48.090;11.464;2023-05-07T17:44:34;19.50;77.90
27779;DHT22;30234;48.090;11.464;2023-05-07T17:48:35;19.40;79.40
27779;DHT22;30234;48.090;11.464;2023-05-07T17:52:37;19.30;79.20
27779;DHT22;30234;48.090;11.464;2023-05-07T17:56:39;19.20;79.80
27779;DHT22;30234;48.090;11.464;2023-05-07T18:00:40;19.00;81.10
27779;DHT22;30234;48.090;11.464;2023-05-07T18:04:42;18.80;82.00
27779;DHT22;30234;48.090;11.464;2023-05-07T18:08:43;18.60;81.70
27779;DHT22;30234;48.090;11.464;2023-05-07T18:12:45;18.60;82.60
27779;DHT22;30234;48.090;11.464;2023-05-07T18:16:46;18.60;83.30
27779;DHT22;30234;48.090;11.464;2023-05-07T18:20:48;18.50;83.00
27779;DHT22;30234;48.090;11.464;2023-05-07T18:24:50;18.50;84.10
27779;DHT22;30234;48.090;11.464;2023-05-07T18:28:52;18.60;84.00
27779;DHT22;30234;48.090;11.464;2023-05-07T18:32:53;18.50;84.50
27779;DHT22;30234;48.090;11.464;2023-05-07T18:36:54;18.40;85.30
27779;DHT22;30234;48.090;11.464;2023-05-07T18:41:03;18.30;85.80
27779;DHT22;30234;48.090;11.464;2023-05-07T18:45:05;18.30;87.10
27779;DHT22;30234;48.090;11.464;2023-05-07T18:49:06;18.10;88.40
27779;DHT22;30234;48.090;11.464;2023-05-07T18:53:08;18.00;88.40
27779;DHT22;30234;48.090;11.464;2023-05-07T18:57:09;17.90;89.30
27779;DHT22;30234;48.090;11.464;2023-05-07T19:01:11;17.80;90.10
27779;DHT22;30234;48.090;11.464;2023-05-07T19:05:12;17.80;90.70
27779;DHT22;30234;48.090;11.464;2023-05-07T19:09:13;17.70;91.10
27779;DHT22;30234;48.090;11.464;2023-05-07T19:13:14;17.60;91.60
27779;DHT22;30234;48.090;11.464;2023-05-07T19:17:15;17.60;92.00
27779;DHT22;30234;48.090;11.464;2023-05-07T19:21:16;17.50;92.90
27779;DHT22;30234;48.090;11.464;2023-05-07T19:25:18;17.50;92.90
27779;DHT22;30234;48.090;11.464;2023-05-07T19:29:19;17.40;93.70
27779;DHT22;30234;48.090;11.464;2023-05-07T19:33:22;17.30;94.60
27779;DHT22;30234;48.090;11.464;2023-05-07T19:37:23;17.20;95.20
27779;DHT22;30234;48.090;11.464;2023-05-07T19:41:25;17.20;95.90
27779;DHT22;30234;48.090;11.464;2023-05-07T19:45:26;17.30;96.00
27779;DHT22;30234;48.090;11.464;2023-05-07T19:49:27;17.20;97.40
27779;DHT22;30234;48.090;11.464;2023-05-07T19:53:28;17.20;97.80
27779;DHT22;30234;48.090;11.464;2023-05-07T19:57:29;17.20;98.60
27779;DHT22;30234;48.090;11.464;2023-05-07T20:01:31;17.00;99.90
27779;DHT22;30234;48.090;11.464;2023-05-07T20:05:32;17.00;99.90
27779;DHT22;30234;48.090;11.464;2023-05-07T20:09:33;17.10;99.90
27779;DHT22;30234;48.090;11.464;2023-05-07T20:13:34;17.10;99.90
27779;DHT22;30234;48.090;11.464;2023-05-07T20:17:35;17.20;99.90
27779;DHT22;30234;48.090;11.464;2023-05-07T20:21:36;17.10;99.90
27779;DHT22;30234;48.090;11.464;2023-05-07T20:25:40;17.10;99.90
27779;DHT22;30234;48.090;11.464;2023-05-07T20:29:42;17.10;99.90
27779;DHT22;30234;48.090;11.464;2023-05-07T20:33:43;17.00;99.90
27779;DHT22;30234;48.090;11.464;2023-05-07T20:37:44;16.80;99.90
27779;DHT22;30234;48.090;11.464;2023-05-07T20:41:46;16.90;99.90
27779;DHT22;30234;48.090;11.464;2023-05-07T20:45:47;16.80;99.90
27779;DHT22;30234;48.090;11.464;2023-05-07T20:49:49;16.80;99.90
27779;DHT22;30234;48.090;11.464;2023-05-07T20:53:50;16.70;99.90
27779;DHT22;30234;48.090;11.464;2023-05-07T20:57:52;16.60;99.90
27779;DHT22;30234;48.090;11.464;2023-05-07T21:01:53;16.60;99.90
27779;DHT22;30234;48.090;11.464;2023-05-07T21:05:56;16.50;99.90
27779;DHT22;30234;48.090;11.464;2023-05-07T21:09:59;16.40;99.90
27779;DHT22;30234;48.090;11.464;2023-05-07T21:14:00;16.30;99.90
27779;DHT22;30234;48.090;11.464;2023-05-07T21:18:01;16.40;99.90
27779;DHT22;30234;48.090;11.464;2023-05-07T21:22:02;16.30;99.90
27779;DHT22;30234;48.090;11.464;2023-05-07T21:26:03;16.20;99.90
27779;DHT22;30234;48.090;11.464;2023-05-07T21:30:05;16.00;99.90
27779;DHT22;30234;48.090;11.464;2023-05-07T21:34:07;16.00;99.90
27779;DHT22;30234;48.090;11.464;2023-05-07T21:38:08;15.90;99.90
27779;DHT22;30234;48.090;11.464;2023-05-07T21:42:09;15.90;99.90
27779;DHT22;30234;48.090;11.464;2023-05-07T21:46:10;15.70;99.90
27779;DHT22;30234;48.090;11.464;2023-05-07T21:50:11;15.70;99.90
27779;DHT22;30234;48.090;11.464;2023-05-07T21:54:13;15.70;99.90
27779;DHT22;30234;48.090;11.464;2023-05-07T21:58:15;15.60;99.90
27779;DHT22;30234;48.090;11.464;2023-05-07T22:02:16;15.40;99.90
27779;DHT22;30234;48.090;11.464;2023-05-07T22:06:16;15.40;99.90
27779;DHT22;30234;48.090;11.464;2023-05-07T22:10:21;15.20;99.90
27779;DHT22;30234;48.090;11.464;2023-05-07T22:14:22;15.30;99.90
27779;DHT22;30234;48.090;11.464;2023-05-07T22:18:23;15.00;99.90
27779;DHT22;30234;48.090;11.464;2023-05-07T22:22:23;15.00;99.90
27779;DHT22;30234;48.090;11.464;2023-05-07T22:26:24;14.80;99.90
27779;DHT22;30234;48.090;11.464;2023-05-07T22:30:26;14.60;99.90
27779;DHT22;30234;48.090;11.464;2023-05-07T22:34:27;14.40;99.90
27779;DHT22;30234;48.090;11.464;2023-05-07T22:38:28;14.40;99.90
27779;DHT22;30234;48.090;11.464;2023-05-07T22:42:29;14.40;99.90
27779;DHT22;30234;48.090;11.464;2023-05-07T22:46:30;14.30;99.90
27779;DHT22;30234;48.090;11.464;2023-05-07T22:50:35;14.30;99.90
27779;DHT22;30234;48.090;11.464;2023-05-07T22:54:37;14.30;99.90
27779;DHT22;30234;48.090;11.464;2023-05-07T22:58:38;14.30;99.90
27779;DHT22;30234;48.090;11.464;2023-05-07T23:02:39;14.30;99.90
27779;DHT22;30234;48.090;11.464;2023-05-07T23:09:54;14.20;99.90
27779;DHT22;30234;48.090;11.464;2023-05-07T23:13:54;14.20;99.90
27779;DHT22;30234;48.090;11.464;2023-05-07T23:17:55;14.20;99.90
27779;DHT22;30234;48.090;11.464;2023-05-07T23:21:56;14.30;99.90
27779;DHT22;30234;48.090;11.464;2023-05-07T23:25:57;14.30;99.90
27779;DHT22;30234;48.090;11.464;2023-05-07T23:29:58;14.30;99.90
27779;DHT22;30234;48.090;11.464;2023-05-07T23:33:59;14.10;99.90
27779;DHT22;30234;48.090;11.464;2023-05-07T23:38:00;14.00;99.90
27779;DHT22;30234;48.090;11.464;2023-05-07T23:42:01;14.00;99.90
27779;DHT22;30234;48.090;11.464;2023-05-07T23:46:02;14.00;99.90
27779;DHT22;30234;48.090;11.464;2023-05-07T23:50:03;14.20;99.90
27779;DHT22;30234;48.090;11.464;2023-05-07T23:54:04;14.20;99.90
27779;DHT22;30234;48.090;11.464;2023-05-07T23:58:06;14.10;99.90
